x

La Perouse Bank (46206) Wave Buoy

9:00 - Fri 31st Oct 2014 All times are PDT. -7 hours from GMT.

  • Sig Wave height 8.2ft
  • Peak Period 10s
  • Wind
    16mph, 20mph gusts
  • Sea Temp 58°f
  • Air Temp 54°f
  • Sea Pressure 1010.8mb
  • La Perouse Bank
  • La Perouse Bank

More Historic Weather Station data

Upgrade to MSW Pro to gain access to the past 30 days of data for over 8000 Wavebouys and Weather Stations around the globe.

Join Pro

Comparision Forecast

View Surf forecast
   
ven. 10/31 9:00 8ft 10s 16 20 mph 1010.8mb 58f 54f
8:00 9ft 14s 16 20 mph 1010.4mb 58f 54f
7:00 9ft 12s 7 11 mph 1010mb 58f 56f
6:00 9ft 12s 2 7 mph 1009.6mb 58f 56f
5:00 9ft 14s 4 9 mph 1009.7mb 58f 55f
3:00 8.5ft 14s 9 11 mph 1009.3mb 59f 54f
2:00 7.5ft 14s 11 13 mph 1009.2mb 59f 52f
1:00 7ft 15s 7 11 mph 1008.9mb 59f 54f
12:00 6.5ft 16s 11 16 mph 1008.5mb 59f 56f
11:00 7ft 9s 9 13 mph 1008.1mb 59f 55f
10:00 7ft 15s 9 11 mph 1007.8mb 59f 55f
9:00 7ft 9s 11 16 mph 1007.1mb 59f 55f
8:00 7ft 8s 13 18 mph 1006.4mb 59f 54f
7:00 7.5ft 8s 13 18 mph 1006.2mb 59f 54f
6:00 9ft 9s 16 20 mph 1005.6mb 58f 54f
5:00 9ft 13s 13
mph
1006.2mb 58f 54f
4:00 10ft 13s 13 18 mph 1006.1mb 59f 54f
3:00 10.5ft 9s 16 20 mph 1007mb 59f 55f
2:00 8.5ft 10s 9 13 mph 1007.5mb 59f 56f
1:00 8ft 9s 4
mph
1007.3mb 59f 56f
12:00 7ft 14s 4 7 mph 1007.7mb 59f 56f
jeu. 10/30 11:00 7ft 10s 2 4 mph 1007.8mb 58f 56f
10:00 6.5ft 9s 4 7 mph 1007.8mb 58f 56f
9:00 6ft 9s 7 9 mph 1007.4mb 58f 56f
8:00 6.5ft 9s 7 9 mph 1007.1mb 57f 56f
7:00 7ft 8s 4 9 mph 1006.9mb 57f 55f
6:00 8ft 10s 9 13 mph 1006.2mb 57f 55f
5:00 8ft 9s 7 9 mph 1006mb 57f 54f
4:00 9ft 8s 2 4 mph 1006.1mb 57f 54f
3:00 9.5ft 8s 2 4 mph 1006.1mb 57f 54f
2:00 9ft 8s 4 9 mph 1006.6mb 57f 54f
1:00 9ft 8s 7 9 mph 1007.1mb 57f 56f
12:00  -   -  11
mph
1007mb - 56f
11:00 9ft 6s 13 18 mph 1006.5mb 57f 57f
10:00 8.5ft 7s 27 31 mph 1004.9mb 57f 58f
9:00 8.5ft 7s 36 45 mph 1004.2mb 57f 57f
8:00 8.5ft 7s 34 40 mph 1004.9mb 58f 56f
7:00 8ft 7s 34 43 mph 1005.8mb 58f 57f
6:00 8ft 6s 34 38 mph 1006.6mb 58f 57f
5:00 7.5ft 6s 31 38 mph 1007.6mb 58f 57f
4:00 7ft 5s 31 38 mph 1008.8mb 58f 57f
3:00 7ft 10s 31 36 mph 1010.4mb 58f 57f
2:00 7ft 10s 27 31 mph 1011.6mb 58f 57f
1:00 7ft 11s 25 34 mph 1012.3mb 59f 57f
12:00 8ft 10s 25 29 mph 1013.1mb 59f 57f
mer. 10/29 11:00 9ft 11s 25 29 mph 1014.2mb 58f 58f
10:00 9ft 11s 25 31 mph 1014.6mb 59f 58f
9:00 9.5ft 11s 25 29 mph 1015.2mb 59f 58f
8:00 9.5ft 10s 20 25 mph 1015.9mb 59f 58f
7:00 10ft 12s 20 22 mph 1016.5mb 59f 58f
6:00 8.5ft 11s 18 22 mph 1016.6mb 59f 58f
5:00 9ft 12s 16 18 mph 1017.1mb 59f 57f
4:00 9ft 13s 16 20 mph 1017.3mb 59f 58f
3:00 10ft 12s 11 13 mph 1017.7mb 59f 57f
2:00 9ft 13s 9 13 mph 1018.6mb 59f 57f
1:00 9.5ft 12s 11
mph
1018.8mb 59f 57f
12:00 10.5ft 12s 11 13 mph 1018.8mb 59f 57f
11:00 10ft 11s 9 11 mph 1018.2mb 59f 57f
10:00 12ft 12s 7 11 mph 1017.9mb 59f 57f
9:00 13ft 11s 4 9 mph 1017.2mb 58f 56f
8:00 13.5ft 11s 7 11 mph 1016.3mb 58f 54f
7:00 15ft 12s 16 25 mph 1015.4mb 58f 56f
6:00 14.5ft 12s 9 13 mph 1014.8mb 58f 55f
5:00 14ft 11s 13 20 mph 1013.9mb 58f 55f
4:00 12.5ft 12s 16 22 mph 1013mb 58f 56f
3:00 13.5ft 11s 16 20 mph 1012.2mb 58f 56f
2:00 12ft 12s 13 18 mph 1011.4mb 59f 57f
1:00 12ft 12s 13 18 mph 1010.3mb 59f 57f
12:00 13.5ft 13s 13 18 mph 1009.6mb 58f 57f
mar. 10/28 11:00 14ft 13s 13 18 mph 1009mb 58f 57f
10:00 13ft 13s 13 18 mph 1008.3mb 58f 57f
9:00 14ft 13s 13 18 mph 1007.4mb 58f 57f
8:00 14ft 12s 13 18 mph 1006.8mb 58f 57f
7:00 15ft 13s 16 20 mph 1006.3mb 58f 57f
6:00 15ft 10s 18 20 mph 1005.6mb 58f 57f
5:00 15ft 10s 18 25 mph 1005mb 58f 57f
4:00 15ft 11s 18 22 mph 1004.6mb 58f 58f
3:00 15.5ft 12s 18 22 mph 1004.4mb 58f 58f
2:00 15.5ft 11s 20 22 mph 1004.3mb 57f 58f
1:00 14ft 12s 20 25 mph 1004.2mb 58f 57f
12:00  -   -  27
mph
- - -
11:00 14ft 10s 22 25 mph 1003.5mb 58f 58f
10:00 14.5ft 12s 22 27 mph 1003.3mb 58f 58f
9:00 13ft 10s 22 31 mph 1002.9mb 58f 58f
8:00 13.5ft 10s 22 27 mph 1002.7mb 58f 58f
7:00 13.5ft 11s 25 29 mph 1002.3mb 58f 58f
6:00 15ft 11s 22 29 mph 1002.4mb 58f 58f